sensor_id;sensor_type;location;lat;lon;timestamp;P1;durP1;ratioP1;P2;durP2;ratioP2
10945;SDS011;5525;42.648;23.368;2023-05-07T00:02:13;5.40;;;4.80;;
10945;SDS011;5525;42.648;23.368;2023-05-07T00:04:41;5.35;;;4.53;;
10945;SDS011;5525;42.648;23.368;2023-05-07T00:07:09;6.25;;;5.05;;
10945;SDS011;5525;42.648;23.368;2023-05-07T00:09:35;6.95;;;4.78;;
10945;SDS011;5525;42.648;23.368;2023-05-07T00:12:02;9.43;;;5.47;;
10945;SDS011;5525;42.648;23.368;2023-05-07T00:14:29;8.23;;;4.90;;
10945;SDS011;5525;42.648;23.368;2023-05-07T00:16:57;6.28;;;4.90;;
10945;SDS011;5525;42.648;23.368;2023-05-07T00:19:23;7.25;;;5.47;;
10945;SDS011;5525;42.648;23.368;2023-05-07T00:21:51;6.90;;;5.65;;
10945;SDS011;5525;42.648;23.368;2023-05-07T00:24:19;6.68;;;5.60;;
10945;SDS011;5525;42.648;23.368;2023-05-07T00:26:46;6.20;;;5.60;;
10945;SDS011;5525;42.648;23.368;2023-05-07T00:29:13;6.70;;;6.03;;
10945;SDS011;5525;42.648;23.368;2023-05-07T00:31:39;7.60;;;5.70;;
10945;SDS011;5525;42.648;23.368;2023-05-07T00:34:08;8.43;;;6.18;;
10945;SDS011;5525;42.648;23.368;2023-05-07T00:36:35;9.23;;;6.00;;
10945;SDS011;5525;42.648;23.368;2023-05-07T00:39:03;10.68;;;7.07;;
10945;SDS011;5525;42.648;23.368;2023-05-07T00:41:29;12.10;;;6.97;;
10945;SDS011;5525;42.648;23.368;2023-05-07T00:43:56;8.45;;;6.88;;
10945;SDS011;5525;42.648;23.368;2023-05-07T00:46:23;11.00;;;7.07;;
10945;SDS011;5525;42.648;23.368;2023-05-07T00:48:50;8.43;;;6.93;;
10945;SDS011;5525;42.648;23.368;2023-05-07T00:51:18;10.52;;;7.90;;
10945;SDS011;5525;42.648;23.368;2023-05-07T00:53:45;9.27;;;7.28;;
10945;SDS011;5525;42.648;23.368;2023-05-07T00:56:14;10.20;;;8.27;;
10945;SDS011;5525;42.648;23.368;2023-05-07T00:58:40;8.50;;;7.40;;
10945;SDS011;5525;42.648;23.368;2023-05-07T01:01:07;7.57;;;6.75;;
10945;SDS011;5525;42.648;23.368;2023-05-07T01:03:34;7.03;;;6.32;;
10945;SDS011;5525;42.648;23.368;2023-05-07T01:06:01;5.78;;;5.18;;
10945;SDS011;5525;42.648;23.368;2023-05-07T01:08:29;5.55;;;4.80;;
10945;SDS011;5525;42.648;23.368;2023-05-07T01:10:57;5.88;;;4.90;;
10945;SDS011;5525;42.648;23.368;2023-05-07T01:13:26;7.75;;;4.90;;
10945;SDS011;5525;42.648;23.368;2023-05-07T01:15:53;6.18;;;4.70;;
10945;SDS011;5525;42.648;23.368;2023-05-07T01:18:20;5.45;;;4.95;;
10945;SDS011;5525;42.648;23.368;2023-05-07T01:20:47;5.57;;;4.53;;
10945;SDS011;5525;42.648;23.368;2023-05-07T01:23:15;5.40;;;4.90;;
10945;SDS011;5525;42.648;23.368;2023-05-07T01:25:42;5.72;;;5.10;;
10945;SDS011;5525;42.648;23.368;2023-05-07T01:28:08;6.00;;;5.40;;
10945;SDS011;5525;42.648;23.368;2023-05-07T01:30:35;5.90;;;5.15;;
10945;SDS011;5525;42.648;23.368;2023-05-07T01:33:03;6.03;;;5.43;;
10945;SDS011;5525;42.648;23.368;2023-05-07T01:35:34;6.88;;;5.05;;
10945;SDS011;5525;42.648;23.368;2023-05-07T01:38:03;6.90;;;5.65;;
10945;SDS011;5525;42.648;23.368;2023-05-07T01:40:32;6.45;;;5.47;;
10945;SDS011;5525;42.648;23.368;2023-05-07T01:43:00;6.15;;;5.55;;
10945;SDS011;5525;42.648;23.368;2023-05-07T01:45:28;7.25;;;6.43;;
10945;SDS011;5525;42.648;23.368;2023-05-07T01:47:56;10.45;;;6.63;;
10945;SDS011;5525;42.648;23.368;2023-05-07T01:50:23;8.45;;;6.95;;
10945;SDS011;5525;42.648;23.368;2023-05-07T01:52:52;9.88;;;7.82;;
10945;SDS011;5525;42.648;23.368;2023-05-07T01:55:19;10.65;;;7.93;;
10945;SDS011;5525;42.648;23.368;2023-05-07T01:57:47;10.60;;;8.55;;
10945;SDS011;5525;42.648;23.368;2023-05-07T02:00:13;9.02;;;8.13;;
10945;SDS011;5525;42.648;23.368;2023-05-07T02:02:40;8.40;;;7.57;;
10945;SDS011;5525;42.648;23.368;2023-05-07T02:05:07;9.38;;;7.88;;
10945;SDS011;5525;42.648;23.368;2023-05-07T02:07:34;9.07;;;8.07;;
10945;SDS011;5525;42.648;23.368;2023-05-07T02:10:01;8.80;;;8.00;;
10945;SDS011;5525;42.648;23.368;2023-05-07T02:12:28;9.00;;;8.10;;
10945;SDS011;5525;42.648;23.368;2023-05-07T02:14:56;9.85;;;8.20;;
10945;SDS011;5525;42.648;23.368;2023-05-07T02:17:23;9.85;;;7.93;;
10945;SDS011;5525;42.648;23.368;2023-05-07T02:19:50;10.43;;;8.35;;
10945;SDS011;5525;42.648;23.368;2023-05-07T02:22:17;9.38;;;8.38;;
10945;SDS011;5525;42.648;23.368;2023-05-07T02:24:44;8.82;;;7.93;;
10945;SDS011;5525;42.648;23.368;2023-05-07T02:27:11;9.57;;;8.57;;
10945;SDS011;5525;42.648;23.368;2023-05-07T02:29:37;9.20;;;8.30;;
10945;SDS011;5525;42.648;23.368;2023-05-07T02:32:05;10.10;;;9.00;;
10945;SDS011;5525;42.648;23.368;2023-05-07T02:34:32;9.73;;;8.73;;
10945;SDS011;5525;42.648;23.368;2023-05-07T02:36:59;9.43;;;8.50;;
10945;SDS011;5525;42.648;23.368;2023-05-07T02:39:26;9.27;;;8.27;;
10945;SDS011;5525;42.648;23.368;2023-05-07T02:41:52;9.65;;;8.75;;
10945;SDS011;5525;42.648;23.368;2023-05-07T02:44:19;11.40;;;8.98;;
10945;SDS011;5525;42.648;23.368;2023-05-07T02:46:46;9.68;;;8.70;;
10945;SDS011;5525;42.648;23.368;2023-05-07T02:49:14;10.48;;;8.95;;
10945;SDS011;5525;42.648;23.368;2023-05-07T02:51:40;9.73;;;8.70;;
10945;SDS011;5525;42.648;23.368;2023-05-07T02:54:07;10.20;;;9.13;;
10945;SDS011;5525;42.648;23.368;2023-05-07T02:56:34;10.60;;;9.50;;
10945;SDS011;5525;42.648;23.368;2023-05-07T02:59:00;10.40;;;8.88;;
10945;SDS011;5525;42.648;23.368;2023-05-07T03:01:27;10.90;;;9.75;;
10945;SDS011;5525;42.648;23.368;2023-05-07T03:03:54;11.55;;;10.23;;
10945;SDS011;5525;42.648;23.368;2023-05-07T03:06:22;11.07;;;9.98;;
10945;SDS011;5525;42.648;23.368;2023-05-07T03:08:49;12.35;;;10.98;;
10945;SDS011;5525;42.648;23.368;2023-05-07T03:11:16;14.57;;;11.45;;
10945;SDS011;5525;42.648;23.368;2023-05-07T03:13:42;12.45;;;11.15;;
10945;SDS011;5525;42.648;23.368;2023-05-07T03:16:09;13.35;;;12.00;;
10945;SDS011;5525;42.648;23.368;2023-05-07T03:18:36;14.63;;;11.93;;
10945;SDS011;5525;42.648;23.368;2023-05-07T03:21:02;12.95;;;11.65;;
10945;SDS011;5525;42.648;23.368;2023-05-07T03:23:30;14.07;;;11.98;;
10945;SDS011;5525;42.648;23.368;2023-05-07T03:25:57;15.32;;;12.32;;
10945;SDS011;5525;42.648;23.368;2023-05-07T03:28:23;14.90;;;12.20;;
10945;SDS011;5525;42.648;23.368;2023-05-07T03:30:50;14.23;;;12.55;;
10945;SDS011;5525;42.648;23.368;2023-05-07T03:33:17;14.93;;;12.57;;
10945;SDS011;5525;42.648;23.368;2023-05-07T03:35:43;16.73;;;12.77;;
10945;SDS011;5525;42.648;23.368;2023-05-07T03:38:10;15.95;;;12.30;;
10945;SDS011;5525;42.648;23.368;2023-05-07T03:40:38;17.30;;;12.82;;
10945;SDS011;5525;42.648;23.368;2023-05-07T03:43:05;17.45;;;13.75;;
10945;SDS011;5525;42.648;23.368;2023-05-07T03:45:32;18.05;;;13.02;;
10945;SDS011;5525;42.648;23.368;2023-05-07T03:47:58;16.58;;;14.10;;
10945;SDS011;5525;42.648;23.368;2023-05-07T03:50:25;12.98;;;10.57;;
10945;SDS011;5525;42.648;23.368;2023-05-07T03:52:52;14.10;;;11.48;;
10945;SDS011;5525;42.648;23.368;2023-05-07T03:55:19;11.32;;;9.68;;
10945;SDS011;5525;42.648;23.368;2023-05-07T03:57:47;11.38;;;9.15;;
10945;SDS011;5525;42.648;23.368;2023-05-07T04:00:13;13.05;;;9.25;;
10945;SDS011;5525;42.648;23.368;2023-05-07T04:02:40;11.75;;;9.80;;
10945;SDS011;5525;42.648;23.368;2023-05-07T04:05:07;12.30;;;9.00;;
10945;SDS011;5525;42.648;23.368;2023-05-07T04:07:34;9.02;;;8.13;;
10945;SDS011;5525;42.648;23.368;2023-05-07T04:10:01;10.70;;;8.38;;
10945;SDS011;5525;42.648;23.368;2023-05-07T04:12:28;8.88;;;7.97;;
10945;SDS011;5525;42.648;23.368;2023-05-07T04:14:56;18.70;;;11.70;;
10945;SDS011;5525;42.648;23.368;2023-05-07T04:17:22;17.67;;;13.00;;
10945;SDS011;5525;42.648;23.368;2023-05-07T04:19:49;13.38;;;9.10;;
10945;SDS011;5525;42.648;23.368;2023-05-07T04:22:16;10.27;;;7.95;;
10945;SDS011;5525;42.648;23.368;2023-05-07T04:24:42;8.38;;;7.53;;
10945;SDS011;5525;42.648;23.368;2023-05-07T04:27:09;11.48;;;7.90;;
10945;SDS011;5525;42.648;23.368;2023-05-07T04:29:36;10.50;;;7.72;;
10945;SDS011;5525;42.648;23.368;2023-05-07T04:32:08;9.85;;;7.93;;
10945;SDS011;5525;42.648;23.368;2023-05-07T04:34:35;8.70;;;7.63;;
10945;SDS011;5525;42.648;23.368;2023-05-07T04:37:01;8.70;;;7.28;;
10945;SDS011;5525;42.648;23.368;2023-05-07T04:39:28;8.40;;;7.47;;
10945;SDS011;5525;42.648;23.368;2023-05-07T04:41:56;10.25;;;7.65;;
10945;SDS011;5525;42.648;23.368;2023-05-07T04:44:22;11.23;;;8.40;;
10945;SDS011;5525;42.648;23.368;2023-05-07T04:46:50;12.95;;;8.15;;
10945;SDS011;5525;42.648;23.368;2023-05-07T04:49:18;8.10;;;7.40;;
10945;SDS011;5525;42.648;23.368;2023-05-07T04:51:44;11.07;;;8.43;;
10945;SDS011;5525;42.648;23.368;2023-05-07T04:54:11;11.38;;;8.25;;
10945;SDS011;5525;42.648;23.368;2023-05-07T04:56:37;8.65;;;7.80;;
10945;SDS011;5525;42.648;23.368;2023-05-07T04:59:04;14.23;;;8.10;;
10945;SDS011;5525;42.648;23.368;2023-05-07T05:01:31;9.70;;;7.95;;
10945;SDS011;5525;42.648;23.368;2023-05-07T05:03:58;8.75;;;7.13;;
10945;SDS011;5525;42.648;23.368;2023-05-07T05:06:28;8.48;;;7.68;;
10945;SDS011;5525;42.648;23.368;2023-05-07T05:08:55;8.48;;;7.50;;
10945;SDS011;5525;42.648;23.368;2023-05-07T05:11:22;12.48;;;7.80;;
10945;SDS011;5525;42.648;23.368;2023-05-07T05:13:48;9.90;;;8.50;;
10945;SDS011;5525;42.648;23.368;2023-05-07T05:16:15;10.35;;;8.65;;
10945;SDS011;5525;42.648;23.368;2023-05-07T05:18:42;8.98;;;7.85;;
10945;SDS011;5525;42.648;23.368;2023-05-07T05:21:08;10.15;;;7.82;;
10945;SDS011;5525;42.648;23.368;2023-05-07T05:23:36;9.52;;;8.18;;
10945;SDS011;5525;42.648;23.368;2023-05-07T05:26:04;9.85;;;8.85;;
10945;SDS011;5525;42.648;23.368;2023-05-07T05:28:30;10.70;;;9.35;;
10945;SDS011;5525;42.648;23.368;2023-05-07T05:30:57;12.13;;;9.35;;
10945;SDS011;5525;42.648;23.368;2023-05-07T05:33:24;10.02;;;9.02;;
10945;SDS011;5525;42.648;23.368;2023-05-07T05:35:50;10.48;;;9.13;;
10945;SDS011;5525;42.648;23.368;2023-05-07T05:38:17;10.38;;;9.27;;
10945;SDS011;5525;42.648;23.368;2023-05-07T05:40:45;10.93;;;9.68;;
10945;SDS011;5525;42.648;23.368;2023-05-07T05:43:13;10.10;;;9.13;;
10945;SDS011;5525;42.648;23.368;2023-05-07T05:45:40;10.80;;;9.30;;
10945;SDS011;5525;42.648;23.368;2023-05-07T05:48:06;10.38;;;9.30;;
10945;SDS011;5525;42.648;23.368;2023-05-07T05:50:33;15.15;;;9.40;;
10945;SDS011;5525;42.648;23.368;2023-05-07T05:53:00;19.85;;;9.45;;
10945;SDS011;5525;42.648;23.368;2023-05-07T05:55:27;10.20;;;9.20;;
10945;SDS011;5525;42.648;23.368;2023-05-07T05:57:55;9.90;;;8.90;;
10945;SDS011;5525;42.648;23.368;2023-05-07T06:00:22;9.75;;;8.85;;
10945;SDS011;5525;42.648;23.368;2023-05-07T06:02:49;10.13;;;9.13;;
10945;SDS011;5525;42.648;23.368;2023-05-07T06:05:15;9.77;;;8.75;;
10945;SDS011;5525;42.648;23.368;2023-05-07T06:07:42;9.57;;;8.68;;
10945;SDS011;5525;42.648;23.368;2023-05-07T06:10:09;10.00;;;8.45;;
10945;SDS011;5525;42.648;23.368;2023-05-07T06:12:36;11.25;;;8.82;;
10945;SDS011;5525;42.648;23.368;2023-05-07T06:15:05;9.93;;;8.93;;
10945;SDS011;5525;42.648;23.368;2023-05-07T06:17:32;10.80;;;9.68;;
10945;SDS011;5525;42.648;23.368;2023-05-07T06:19:59;10.73;;;9.73;;
10945;SDS011;5525;42.648;23.368;2023-05-07T06:22:25;10.00;;;9.10;;
10945;SDS011;5525;42.648;23.368;2023-05-07T06:24:52;9.88;;;8.98;;
10945;SDS011;5525;42.648;23.368;2023-05-07T06:27:19;9.52;;;8.63;;
10945;SDS011;5525;42.648;23.368;2023-05-07T06:29:47;11.25;;;8.35;;
10945;SDS011;5525;42.648;23.368;2023-05-07T06:32:16;9.90;;;8.38;;
10945;SDS011;5525;42.648;23.368;2023-05-07T06:34:42;11.18;;;8.13;;
10945;SDS011;5525;42.648;23.368;2023-05-07T06:37:09;11.50;;;8.52;;
10945;SDS011;5525;42.648;23.368;2023-05-07T06:39:36;9.55;;;8.00;;
10945;SDS011;5525;42.648;23.368;2023-05-07T06:42:03;11.25;;;8.50;;
10945;SDS011;5525;42.648;23.368;2023-05-07T06:44:30;10.10;;;8.35;;
10945;SDS011;5525;42.648;23.368;2023-05-07T06:46:56;9.38;;;7.90;;
10945;SDS011;5525;42.648;23.368;2023-05-07T06:49:25;12.35;;;8.60;;
10945;SDS011;5525;42.648;23.368;2023-05-07T06:51:51;9.23;;;7.78;;
10945;SDS011;5525;42.648;23.368;2023-05-07T06:54:18;12.52;;;7.90;;
10945;SDS011;5525;42.648;23.368;2023-05-07T06:56:45;10.13;;;7.82;;
10945;SDS011;5525;42.648;23.368;2023-05-07T06:59:12;8.20;;;7.28;;
10945;SDS011;5525;42.648;23.368;2023-05-07T07:01:38;8.77;;;7.82;;
10945;SDS011;5525;42.648;23.368;2023-05-07T07:04:05;6.85;;;6.15;;
10945;SDS011;5525;42.648;23.368;2023-05-07T07:06:33;10.15;;;7.55;;
10945;SDS011;5525;42.648;23.368;2023-05-07T07:09:00;11.02;;;7.13;;
10945;SDS011;5525;42.648;23.368;2023-05-07T07:11:26;10.00;;;7.78;;
10945;SDS011;5525;42.648;23.368;2023-05-07T07:13:53;7.90;;;7.10;;
10945;SDS011;5525;42.648;23.368;2023-05-07T07:16:20;8.00;;;7.05;;
10945;SDS011;5525;42.648;23.368;2023-05-07T07:18:47;9.50;;;7.55;;
10945;SDS011;5525;42.648;23.368;2023-05-07T07:21:14;9.00;;;7.05;;
10945;SDS011;5525;42.648;23.368;2023-05-07T07:23:42;8.27;;;7.47;;
10945;SDS011;5525;42.648;23.368;2023-05-07T07:26:08;12.57;;;8.00;;
10945;SDS011;5525;42.648;23.368;2023-05-07T07:28:41;7.20;;;6.50;;
10945;SDS011;5525;42.648;23.368;2023-05-07T07:31:08;9.60;;;7.68;;
10945;SDS011;5525;42.648;23.368;2023-05-07T07:33:35;7.90;;;7.15;;
10945;SDS011;5525;42.648;23.368;2023-05-07T07:36:02;8.15;;;6.55;;
10945;SDS011;5525;42.648;23.368;2023-05-07T07:38:29;7.47;;;6.82;;
10945;SDS011;5525;42.648;23.368;2023-05-07T07:40:57;8.68;;;6.68;;
10945;SDS011;5525;42.648;23.368;2023-05-07T07:43:23;9.05;;;6.07;;
10945;SDS011;5525;42.648;23.368;2023-05-07T07:45:50;7.60;;;6.57;;
10945;SDS011;5525;42.648;23.368;2023-05-07T07:48:17;8.02;;;6.65;;
10945;SDS011;5525;42.648;23.368;2023-05-07T07:50:44;7.32;;;6.60;;
10945;SDS011;5525;42.648;23.368;2023-05-07T07:53:10;7.45;;;6.55;;
10945;SDS011;5525;42.648;23.368;2023-05-07T07:55:38;8.43;;;6.40;;
10945;SDS011;5525;42.648;23.368;2023-05-07T07:58:06;10.95;;;7.60;;
10945;SDS011;5525;42.648;23.368;2023-05-07T08:00:33;9.40;;;7.63;;
10945;SDS011;5525;42.648;23.368;2023-05-07T08:02:59;7.75;;;6.97;;
10945;SDS011;5525;42.648;23.368;2023-05-07T08:05:28;8.80;;;7.90;;
10945;SDS011;5525;42.648;23.368;2023-05-07T08:07:55;8.07;;;7.22;;
10945;SDS011;5525;42.648;23.368;2023-05-07T08:10:22;7.70;;;6.90;;
10945;SDS011;5525;42.648;23.368;2023-05-07T08:12:48;8.30;;;7.47;;
10945;SDS011;5525;42.648;23.368;2023-05-07T08:15:17;7.75;;;7.05;;
10945;SDS011;5525;42.648;23.368;2023-05-07T08:17:43;9.88;;;7.55;;
10945;SDS011;5525;42.648;23.368;2023-05-07T08:20:10;10.23;;;7.60;;
10945;SDS011;5525;42.648;23.368;2023-05-07T08:22:37;8.10;;;7.30;;
10945;SDS011;5525;42.648;23.368;2023-05-07T08:25:04;9.40;;;8.13;;
10945;SDS011;5525;42.648;23.368;2023-05-07T08:27:31;8.13;;;7.25;;
10945;SDS011;5525;42.648;23.368;2023-05-07T08:29:57;10.30;;;7.90;;
10945;SDS011;5525;42.648;23.368;2023-05-07T08:32:25;10.65;;;7.88;;
10945;SDS011;5525;42.648;23.368;2023-05-07T08:34:52;8.95;;;7.32;;
10945;SDS011;5525;42.648;23.368;2023-05-07T08:37:20;10.52;;;7.63;;
10945;SDS011;5525;42.648;23.368;2023-05-07T08:39:47;7.70;;;6.93;;
10945;SDS011;5525;42.648;23.368;2023-05-07T08:42:13;8.07;;;7.28;;
10945;SDS011;5525;42.648;23.368;2023-05-07T08:44:43;7.50;;;6.55;;
10945;SDS011;5525;42.648;23.368;2023-05-07T08:47:12;8.07;;;6.47;;
10945;SDS011;5525;42.648;23.368;2023-05-07T08:49:41;8.00;;;6.80;;
10945;SDS011;5525;42.648;23.368;2023-05-07T08:52:09;7.95;;;7.18;;
10945;SDS011;5525;42.648;23.368;2023-05-07T08:54:37;7.25;;;6.55;;
10945;SDS011;5525;42.648;23.368;2023-05-07T08:57:04;6.70;;;6.10;;
10945;SDS011;5525;42.648;23.368;2023-05-07T08:59:31;7.70;;;5.15;;
10945;SDS011;5525;42.648;23.368;2023-05-07T09:01:58;6.57;;;5.20;;
10945;SDS011;5525;42.648;23.368;2023-05-07T09:04:25;6.00;;;4.00;;
10945;SDS011;5525;42.648;23.368;2023-05-07T09:06:53;5.72;;;4.03;;
10945;SDS011;5525;42.648;23.368;2023-05-07T09:09:21;4.68;;;4.10;;
10945;SDS011;5525;42.648;23.368;2023-05-07T09:11:48;4.53;;;4.13;;
10945;SDS011;5525;42.648;23.368;2023-05-07T09:14:24;4.72;;;4.32;;
10945;SDS011;5525;42.648;23.368;2023-05-07T09:16:52;7.18;;;4.40;;
10945;SDS011;5525;42.648;23.368;2023-05-07T09:19:21;5.30;;;4.25;;
10945;SDS011;5525;42.648;23.368;2023-05-07T09:21:49;5.50;;;4.90;;
10945;SDS011;5525;42.648;23.368;2023-05-07T09:24:17;10.25;;;5.72;;
10945;SDS011;5525;42.648;23.368;2023-05-07T09:26:44;7.40;;;5.32;;
10945;SDS011;5525;42.648;23.368;2023-05-07T09:29:12;7.05;;;5.45;;
10945;SDS011;5525;42.648;23.368;2023-05-07T09:31:39;6.68;;;5.82;;
10945;SDS011;5525;42.648;23.368;2023-05-07T09:34:06;6.50;;;5.97;;
10945;SDS011;5525;42.648;23.368;2023-05-07T09:36:33;6.35;;;5.68;;
10945;SDS011;5525;42.648;23.368;2023-05-07T09:39:00;9.73;;;5.22;;
10945;SDS011;5525;42.648;23.368;2023-05-07T09:41:29;6.40;;;5.28;;
10945;SDS011;5525;42.648;23.368;2023-05-07T09:43:57;5.80;;;4.63;;
10945;SDS011;5525;42.648;23.368;2023-05-07T09:46:27;5.68;;;5.07;;
10945;SDS011;5525;42.648;23.368;2023-05-07T09:48:56;7.57;;;5.32;;
10945;SDS011;5525;42.648;23.368;2023-05-07T09:51:30;4.97;;;4.57;;
10945;SDS011;5525;42.648;23.368;2023-05-07T09:54:01;5.35;;;4.85;;
10945;SDS011;5525;42.648;23.368;2023-05-07T09:56:31;9.48;;;5.22;;
10945;SDS011;5525;42.648;23.368;2023-05-07T09:58:59;4.53;;;4.13;;
10945;SDS011;5525;42.648;23.368;2023-05-07T10:01:27;4.97;;;4.47;;
10945;SDS011;5525;42.648;23.368;2023-05-07T10:03:57;6.53;;;4.80;;
10945;SDS011;5525;42.648;23.368;2023-05-07T10:06:25;5.80;;;5.10;;
10945;SDS011;5525;42.648;23.368;2023-05-07T10:08:54;6.22;;;4.90;;
10945;SDS011;5525;42.648;23.368;2023-05-07T10:11:22;5.57;;;4.38;;
10945;SDS011;5525;42.648;23.368;2023-05-07T10:13:51;6.28;;;4.28;;
10945;SDS011;5525;42.648;23.368;2023-05-07T10:16:20;5.47;;;4.13;;
10945;SDS011;5525;42.648;23.368;2023-05-07T10:18:48;6.68;;;4.70;;
10945;SDS011;5525;42.648;23.368;2023-05-07T10:21:17;4.90;;;4.40;;
10945;SDS011;5525;42.648;23.368;2023-05-07T10:23:45;6.50;;;4.35;;
10945;SDS011;5525;42.648;23.368;2023-05-07T10:26:16;5.20;;;4.38;;
10945;SDS011;5525;42.648;23.368;2023-05-07T10:28:46;4.85;;;4.35;;
10945;SDS011;5525;42.648;23.368;2023-05-07T10:31:37;7.45;;;4.30;;
10945;SDS011;5525;42.648;23.368;2023-05-07T10:34:16;5.80;;;4.60;;
10945;SDS011;5525;42.648;23.368;2023-05-07T10:36:47;6.70;;;4.80;;
10945;SDS011;5525;42.648;23.368;2023-05-07T10:39:17;4.93;;;4.47;;
10945;SDS011;5525;42.648;23.368;2023-05-07T10:41:45;5.40;;;4.20;;
10945;SDS011;5525;42.648;23.368;2023-05-07T10:44:24;4.65;;;4.35;;
10945;SDS011;5525;42.648;23.368;2023-05-07T10:52:40;5.03;;;4.13;;
10945;SDS011;5525;42.648;23.368;2023-05-07T10:55:19;6.55;;;4.10;;
10945;SDS011;5525;42.648;23.368;2023-05-07T10:57:50;4.82;;;4.22;;
10945;SDS011;5525;42.648;23.368;2023-05-07T11:03:11;4.72;;;4.32;;
10945;SDS011;5525;42.648;23.368;2023-05-07T11:05:39;4.72;;;4.20;;
10945;SDS011;5525;42.648;23.368;2023-05-07T11:08:07;6.22;;;4.10;;
10945;SDS011;5525;42.648;23.368;2023-05-07T11:10:48;5.20;;;4.20;;
10945;SDS011;5525;42.648;23.368;2023-05-07T11:16:16;4.07;;;3.78;;
10945;SDS011;5525;42.648;23.368;2023-05-07T11:18:49;4.90;;;4.35;;
10945;SDS011;5525;42.648;23.368;2023-05-07T11:21:33;4.78;;;4.38;;
10945;SDS011;5525;42.648;23.368;2023-05-07T11:24:01;5.47;;;3.95;;
10945;SDS011;5525;42.648;23.368;2023-05-07T11:26:30;5.18;;;4.22;;
10945;SDS011;5525;42.648;23.368;2023-05-07T11:29:10;7.55;;;4.20;;
10945;SDS011;5525;42.648;23.368;2023-05-07T11:31:38;5.78;;;4.15;;
10945;SDS011;5525;42.648;23.368;2023-05-07T11:34:07;4.40;;;4.00;;
10945;SDS011;5525;42.648;23.368;2023-05-07T11:36:35;4.45;;;4.13;;
10945;SDS011;5525;42.648;23.368;2023-05-07T11:39:03;6.00;;;4.32;;
10945;SDS011;5525;42.648;23.368;2023-05-07T11:41:34;4.82;;;4.32;;
10945;SDS011;5525;42.648;23.368;2023-05-07T11:44:02;5.22;;;4.13;;
10945;SDS011;5525;42.648;23.368;2023-05-07T11:46:29;4.72;;;4.22;;
10945;SDS011;5525;42.648;23.368;2023-05-07T11:48:56;5.47;;;4.50;;
10945;SDS011;5525;42.648;23.368;2023-05-07T11:51:25;7.15;;;4.88;;
10945;SDS011;5525;42.648;23.368;2023-05-07T11:53:53;6.28;;;4.53;;
10945;SDS011;5525;42.648;23.368;2023-05-07T11:56:21;5.13;;;4.72;;
10945;SDS011;5525;42.648;23.368;2023-05-07T11:58:47;5.05;;;4.55;;
10945;SDS011;5525;42.648;23.368;2023-05-07T12:01:17;5.10;;;4.60;;
10945;SDS011;5525;42.648;23.368;2023-05-07T12:03:44;5.20;;;4.70;;
10945;SDS011;5525;42.648;23.368;2023-05-07T12:06:12;5.85;;;4.50;;
10945;SDS011;5525;42.648;23.368;2023-05-07T12:08:42;5.30;;;4.70;;
10945;SDS011;5525;42.648;23.368;2023-05-07T12:11:10;5.40;;;4.47;;
10945;SDS011;5525;42.648;23.368;2023-05-07T12:13:41;5.43;;;4.75;;
10945;SDS011;5525;42.648;23.368;2023-05-07T12:16:08;6.03;;;4.25;;
10945;SDS011;5525;42.648;23.368;2023-05-07T12:18:35;4.97;;;4.18;;
10945;SDS011;5525;42.648;23.368;2023-05-07T12:21:03;5.28;;;4.55;;
10945;SDS011;5525;42.648;23.368;2023-05-07T12:23:31;4.53;;;4.13;;
10945;SDS011;5525;42.648;23.368;2023-05-07T12:25:59;6.65;;;4.60;;
10945;SDS011;5525;42.648;23.368;2023-05-07T12:28:26;4.63;;;4.22;;
10945;SDS011;5525;42.648;23.368;2023-05-07T12:30:53;8.27;;;4.57;;
10945;SDS011;5525;42.648;23.368;2023-05-07T12:33:23;5.10;;;4.57;;
10945;SDS011;5525;42.648;23.368;2023-05-07T12:35:53;4.70;;;4.30;;
10945;SDS011;5525;42.648;23.368;2023-05-07T12:38:21;5.68;;;4.20;;
10945;SDS011;5525;42.648;23.368;2023-05-07T12:40:48;5.35;;;4.20;;
10945;SDS011;5525;42.648;23.368;2023-05-07T12:43:18;6.22;;;4.32;;
10945;SDS011;5525;42.648;23.368;2023-05-07T12:45:46;4.53;;;4.18;;
10945;SDS011;5525;42.648;23.368;2023-05-07T12:48:14;5.07;;;4.25;;
10945;SDS011;5525;42.648;23.368;2023-05-07T12:50:41;6.20;;;4.20;;
10945;SDS011;5525;42.648;23.368;2023-05-07T12:53:08;4.93;;;4.50;;
10945;SDS011;5525;42.648;23.368;2023-05-07T12:55:40;4.65;;;4.05;;
10945;SDS011;5525;42.648;23.368;2023-05-07T12:58:08;4.78;;;4.38;;
10945;SDS011;5525;42.648;23.368;2023-05-07T13:00:43;4.93;;;4.47;;
10945;SDS011;5525;42.648;23.368;2023-05-07T13:03:10;7.32;;;4.40;;
10945;SDS011;5525;42.648;23.368;2023-05-07T13:05:37;4.50;;;4.10;;
10945;SDS011;5525;42.648;23.368;2023-05-07T13:08:04;4.32;;;3.53;;
10945;SDS011;5525;42.648;23.368;2023-05-07T13:10:30;3.50;;;3.20;;
10945;SDS011;5525;42.648;23.368;2023-05-07T13:12:57;3.90;;;3.50;;
10945;SDS011;5525;42.648;23.368;2023-05-07T13:15:24;3.40;;;3.10;;
10945;SDS011;5525;42.648;23.368;2023-05-07T13:17:53;3.80;;;3.00;;
10945;SDS011;5525;42.648;23.368;2023-05-07T13:20:20;3.90;;;3.60;;
10945;SDS011;5525;42.648;23.368;2023-05-07T13:22:46;3.50;;;3.20;;
10945;SDS011;5525;42.648;23.368;2023-05-07T13:25:13;3.80;;;3.30;;
10945;SDS011;5525;42.648;23.368;2023-05-07T13:27:40;3.30;;;3.00;;
10945;SDS011;5525;42.648;23.368;2023-05-07T13:30:07;3.65;;;3.25;;
10945;SDS011;5525;42.648;23.368;2023-05-07T13:32:34;3.70;;;3.33;;
10945;SDS011;5525;42.648;23.368;2023-05-07T13:35:02;4.95;;;3.20;;
10945;SDS011;5525;42.648;23.368;2023-05-07T13:37:29;5.22;;;3.60;;
10945;SDS011;5525;42.648;23.368;2023-05-07T13:39:56;4.90;;;3.20;;
10945;SDS011;5525;42.648;23.368;2023-05-07T13:42:23;3.90;;;3.58;;
10945;SDS011;5525;42.648;23.368;2023-05-07T13:44:49;5.22;;;2.70;;
10945;SDS011;5525;42.648;23.368;2023-05-07T13:47:16;3.58;;;3.10;;
10945;SDS011;5525;42.648;23.368;2023-05-07T13:49:43;3.17;;;2.90;;
10945;SDS011;5525;42.648;23.368;2023-05-07T13:52:11;11.50;;;3.42;;
10945;SDS011;5525;42.648;23.368;2023-05-07T13:54:37;3.72;;;3.20;;
10945;SDS011;5525;42.648;23.368;2023-05-07T13:57:04;4.22;;;2.92;;
10945;SDS011;5525;42.648;23.368;2023-05-07T13:59:31;4.53;;;3.45;;
10945;SDS011;5525;42.648;23.368;2023-05-07T14:01:58;3.60;;;3.20;;
10945;SDS011;5525;42.648;23.368;2023-05-07T14:04:24;4.05;;;3.40;;
10945;SDS011;5525;42.648;23.368;2023-05-07T14:06:51;3.63;;;2.85;;
10945;SDS011;5525;42.648;23.368;2023-05-07T14:09:19;4.47;;;2.97;;
10945;SDS011;5525;42.648;23.368;2023-05-07T14:11:46;4.47;;;2.75;;
10945;SDS011;5525;42.648;23.368;2023-05-07T14:14:16;3.50;;;3.05;;
10945;SDS011;5525;42.648;23.368;2023-05-07T14:16:43;4.93;;;3.35;;
10945;SDS011;5525;42.648;23.368;2023-05-07T14:19:09;5.15;;;3.22;;
10945;SDS011;5525;42.648;23.368;2023-05-07T14:21:36;5.03;;;3.17;;
10945;SDS011;5525;42.648;23.368;2023-05-07T14:24:03;3.47;;;3.00;;
10945;SDS011;5525;42.648;23.368;2023-05-07T14:26:31;3.30;;;2.90;;
10945;SDS011;5525;42.648;23.368;2023-05-07T14:28:58;3.20;;;2.90;;
10945;SDS011;5525;42.648;23.368;2023-05-07T14:31:24;6.25;;;2.95;;
10945;SDS011;5525;42.648;23.368;2023-05-07T14:33:51;3.33;;;3.03;;
10945;SDS011;5525;42.648;23.368;2023-05-07T14:36:18;16.42;;;3.75;;
10945;SDS011;5525;42.648;23.368;2023-05-07T14:38:47;3.00;;;2.72;;
10945;SDS011;5525;42.648;23.368;2023-05-07T14:41:15;3.53;;;3.22;;
10945;SDS011;5525;42.648;23.368;2023-05-07T14:43:43;3.88;;;3.10;;
10945;SDS011;5525;42.648;23.368;2023-05-07T14:46:14;3.50;;;3.20;;
10945;SDS011;5525;42.648;23.368;2023-05-07T14:48:42;3.40;;;3.10;;
10945;SDS011;5525;42.648;23.368;2023-05-07T14:51:09;3.95;;;3.25;;
10945;SDS011;5525;42.648;23.368;2023-05-07T14:53:36;3.45;;;3.15;;
10945;SDS011;5525;42.648;23.368;2023-05-07T14:56:03;4.68;;;3.30;;
10945;SDS011;5525;42.648;23.368;2023-05-07T14:58:30;3.60;;;2.90;;